Time;durP1;ratioP1;P1;durP2;ratioP2;P2;SDS_P1;SDS_P2;PMS_P1;PMS_P2;Temp;Humidity;BMP_temperature;BMP_pressure;BME280_temperature;BME280_humidity;BME280_pressure;Samples;Min_cycle;Max_cycle;Signal;HPM_P1;HPM_P2
2023/07/23 00:00:31;;;;;;;;;;;17.90;49.10;;;13.75;92.95;95457.06;4997208;28;19910;-44
2023/07/23 00:02:57;;;;;;;;;;;17.80;49.10;;;13.69;93.84;95461.69;4997930;28;19921;-44
2023/07/23 00:05:24;;;;;;;;;;;17.80;49.20;;;13.72;93.71;95454.97;4998011;28;19917;-44
2023/07/23 00:07:54;;;;;;;;;;;17.80;49.30;;;13.72;93.23;95450.41;5008621;28;19913;-43
2023/07/23 00:10:21;;;;;;;;;;;17.70;49.30;;;13.73;93.04;95456.56;5010866;28;20454;-44
2023/07/23 00:12:47;;;;;;;;;;;17.70;49.40;;;13.73;93.19;95457.38;5013198;28;19920;-43
2023/07/23 00:15:13;;;;;;;;;;;17.70;49.50;;;13.76;92.92;95458.69;4992008;28;19910;-43
2023/07/23 00:17:42;;;;;;;;;;;17.70;49.50;;;13.73;92.89;95453.91;4995807;28;19948;-48
2023/07/23 00:20:11;;;;;;;;;;;17.70;49.60;;;13.75;92.51;95454.38;5005240;28;19913;-45
2023/07/23 00:22:38;;;;;;;;;;;17.70;49.70;;;13.74;92.83;95453.59;5005375;28;19948;-48
2023/07/23 00:25:08;;;;;;;;;;;17.70;49.70;;;13.72;92.96;95446.94;5013660;28;19916;-43
2023/07/23 00:27:34;;;;;;;;;;;17.70;49.80;;;13.68;92.64;95444.03;5005600;28;19909;-45
2023/07/23 00:30:01;;;;;;;;;;;17.70;49.80;;;13.66;93.14;95451.53;5013239;28;19963;-43
2023/07/23 00:32:27;;;;;;;;;;;17.70;49.90;;;13.62;93.40;95445.19;5001719;28;19910;-44
2023/07/23 00:34:53;;;;;;;;;;;17.70;49.90;;;13.63;93.43;95436.06;5012343;28;19909;-44
2023/07/23 00:37:18;;;;;;;;;;;17.70;50.00;;;13.60;93.38;95440.13;5011054;28;19963;-43
2023/07/23 00:39:44;;;;;;;;;;;17.70;50.10;;;13.58;93.46;95436.13;5006353;28;19937;-44
2023/07/23 00:42:10;;;;;;;;;;;17.60;50.10;;;13.60;93.91;95434.78;4998252;28;19909;-44
2023/07/23 00:44:35;;;;;;;;;;;17.60;50.20;;;13.63;93.74;95439.56;5014077;28;20355;-44
2023/07/23 00:47:05;;;;;;;;;;;17.60;50.20;;;13.69;93.37;95429.56;5012782;28;19963;-46
2023/07/23 00:49:31;;;;;;;;;;;17.70;50.30;;;13.69;93.15;95429.56;5024176;28;19921;-43
2023/07/23 00:51:58;;;;;;;;;;;17.60;50.30;;;13.68;93.53;95435.22;5006069;28;20367;-44
2023/07/23 00:54:24;;;;;;;;;;;17.60;50.40;;;13.67;93.50;95426.41;5027809;28;19913;-43
2023/07/23 00:56:50;;;;;;;;;;;17.60;50.40;;;13.63;93.96;95431.53;5026132;28;20278;-43
2023/07/23 00:59:18;;;;;;;;;;;17.60;50.50;;;13.64;94.83;95426.97;5012735;28;19909;-44
2023/07/23 01:01:43;;;;;;;;;;;17.60;50.50;;;13.66;94.74;95424.78;5007496;28;19913;-45
2023/07/23 01:04:09;;;;;;;;;;;17.60;50.60;;;13.64;94.53;95419.72;5003845;28;19920;-49
2023/07/23 01:06:39;;;;;;;;;;;17.60;50.60;;;13.60;94.93;95416.03;5005473;28;19909;-47
2023/07/23 01:09:06;;;;;;;;;;;17.60;50.70;;;13.61;95.73;95424.88;5022793;28;20256;-44
2023/07/23 01:11:33;;;;;;;;;;;17.60;50.70;;;13.62;95.19;95416.53;5027861;28;19917;-44
2023/07/23 01:14:05;;;;;;;;;;;17.60;50.80;;;13.59;95.70;95419.78;5022010;28;20343;-44
2023/07/23 01:16:32;;;;;;;;;;;17.60;50.90;;;13.64;96.19;95422.41;5010721;28;19931;-44
2023/07/23 01:18:59;;;;;;;;;;;17.60;51.00;;;13.64;96.21;95418.94;5012644;28;19913;-44
2023/07/23 01:21:27;;;;;;;;;;;17.60;51.10;;;13.62;96.30;95426.44;4999255;28;20679;-46
2023/07/23 01:23:53;;;;;;;;;;;17.60;51.70;;;13.57;96.74;95421.97;5012212;28;20003;-44
2023/07/23 01:26:20;;;;;;;;;;;17.60;51.10;;;13.56;97.20;95428.38;5008375;28;19955;-46
2023/07/23 01:28:45;;;;;;;;;;;17.50;51.10;;;13.54;97.42;95429.78;5012166;28;19909;-43
2023/07/23 01:31:14;;;;;;;;;;;17.50;51.20;;;13.54;97.84;95419.06;4999099;28;19935;-48
2023/07/23 01:33:41;;;;;;;;;;;17.50;51.20;;;13.49;97.95;95425.28;5003154;28;20433;-47
2023/07/23 01:36:08;;;;;;;;;;;17.50;51.40;;;13.47;98.48;95419.41;5012109;28;19917;-47
2023/07/23 01:38:34;;;;;;;;;;;17.50;51.40;;;13.48;97.80;95418.34;5000873;28;19909;-48
2023/07/23 01:41:01;;;;;;;;;;;17.40;51.40;;;13.46;98.18;95425.06;5027463;28;19916;-45
2023/07/23 01:43:28;;;;;;;;;;;17.40;51.50;;;13.37;98.91;95423.00;5025215;28;19909;-44
2023/07/23 01:45:54;;;;;;;;;;;17.40;51.60;;;13.29;100.00;95417.50;5012288;28;19999;-45
2023/07/23 01:48:22;;;;;;;;;;;17.30;51.60;;;13.30;99.81;95416.41;5011903;28;19913;-48
2023/07/23 01:50:48;;;;;;;;;;;17.30;51.80;;;13.30;99.42;95416.41;5006085;28;20270;-44
2023/07/23 01:53:14;;;;;;;;;;;17.30;51.80;;;13.22;99.50;95406.31;5011611;28;20244;-45
2023/07/23 01:55:40;;;;;;;;;;;17.30;51.90;;;13.18;100.00;95409.53;5008360;28;19919;-43
2023/07/23 01:58:06;;;;;;;;;;;17.20;51.90;;;13.19;100.00;95408.47;5005903;28;20440;-44
2023/07/23 02:00:31;;;;;;;;;;;17.20;52.00;;;13.17;100.00;95412.50;5011399;28;20350;-43
2023/07/23 02:02:57;;;;;;;;;;;17.20;52.20;;;13.17;99.96;95405.28;4997474;28;20308;-46
2023/07/23 02:05:23;;;;;;;;;;;17.20;52.20;;;13.09;100.00;95408.56;5006047;28;19913;-44
2023/07/23 02:07:49;;;;;;;;;;;17.10;52.20;;;13.04;100.00;95408.66;4999584;28;19909;-45
2023/07/23 02:10:20;;;;;;;;;;;17.10;52.30;;;13.06;100.00;95411.81;5011171;28;20035;-43
2023/07/23 02:12:46;;;;;;;;;;;17.10;52.40;;;13.03;100.00;95407.03;5011197;28;19913;-44
2023/07/23 02:15:13;;;;;;;;;;;17.10;52.50;;;13.04;100.00;95408.66;5002023;28;19970;-43
2023/07/23 02:17:39;;;;;;;;;;;17.10;52.60;;;13.00;100.00;95401.47;5011771;28;20349;-43
2023/07/23 02:20:06;;;;;;;;;;;17.00;52.60;;;13.01;100.00;95405.75;5004411;28;19909;-45
2023/07/23 02:22:32;;;;;;;;;;;17.00;52.60;;;12.92;100.00;95411.69;5005095;28;19909;-45
2023/07/23 02:24:58;;;;;;;;;;;17.00;52.70;;;12.92;100.00;95406.34;5004414;28;19948;-44
2023/07/23 02:27:24;;;;;;;;;;;17.00;52.80;;;12.86;100.00;95409.38;5004722;28;19947;-43
2023/07/23 02:29:49;;;;;;;;;;;17.00;52.90;;;12.90;100.00;95407.72;5011563;28;19921;-45
2023/07/23 02:32:15;;;;;;;;;;;17.00;52.90;;;12.80;100.00;95413.97;5002386;28;20367;-43
2023/07/23 02:34:41;;;;;;;;;;;16.90;52.90;;;12.80;100.00;95405.94;4999864;28;19909;-44
2023/07/23 02:37:07;;;;;;;;;;;16.90;53.00;;;12.73;100.00;95400.13;5011800;28;19909;-48
2023/07/23 02:39:32;;;;;;;;;;;16.90;53.00;;;12.78;100.00;95407.28;4998153;28;19938;-47
2023/07/23 02:41:58;;;;;;;;;;;16.80;53.10;;;12.66;100.00;95413.00;5011382;28;20033;-44
2023/07/23 02:44:24;;;;;;;;;;;16.80;53.10;;;12.64;100.00;95407.16;5006839;28;19909;-43
2023/07/23 02:46:50;;;;;;;;;;;16.80;53.20;;;12.64;100.00;95407.97;5001516;28;19913;-46
2023/07/23 02:49:15;;;;;;;;;;;16.80;53.30;;;12.58;100.00;95409.09;5025313;28;19917;-45
2023/07/23 02:51:41;;;;;;;;;;;16.70;53.40;;;12.63;100.00;95401.03;5004906;28;19908;-46
2023/07/23 02:54:08;;;;;;;;;;;16.70;53.50;;;12.64;100.00;95407.16;4998094;28;20413;-46
2023/07/23 02:56:35;;;;;;;;;;;16.70;53.50;;;12.57;100.00;95404.03;4997425;28;19913;-46
2023/07/23 02:59:03;;;;;;;;;;;16.60;53.50;;;12.58;100.00;95402.94;4990237;28;19924;-45
2023/07/23 03:01:30;;;;;;;;;;;16.60;53.60;;;12.60;100.00;95409.63;4989547;28;19910;-44
2023/07/23 03:03:55;;;;;;;;;;;16.60;53.80;;;12.55;100.00;95401.63;4991582;28;19909;-43
2023/07/23 03:06:21;;;;;;;;;;;16.60;53.80;;;12.54;100.00;95408.06;4991397;28;19932;-46
2023/07/23 03:08:47;;;;;;;;;;;16.60;53.90;;;12.56;100.00;95394.41;4990059;28;19909;-43
2023/07/23 03:11:13;;;;;;;;;;;16.60;53.90;;;12.49;100.00;95405.44;4993204;28;19914;-49
2023/07/23 03:13:38;;;;;;;;;;;16.60;54.00;;;12.47;100.00;95403.03;4994045;28;19921;-47
2023/07/23 03:16:04;;;;;;;;;;;16.50;54.00;;;12.52;100.00;95402.19;4995542;28;19909;-44
2023/07/23 03:18:31;;;;;;;;;;;16.50;54.10;;;12.56;100.00;95397.88;4995213;28;19913;-43
2023/07/23 03:20:57;;;;;;;;;;;16.50;54.20;;;12.55;100.00;95401.63;4994250;28;19910;-45
2023/07/23 03:23:23;;;;;;;;;;;16.50;54.20;;;12.57;100.00;95398.69;4994692;28;19910;-44
2023/07/23 03:25:48;;;;;;;;;;;16.50;54.30;;;12.57;100.00;95398.69;4994099;28;19909;-46
2023/07/23 03:28:15;;;;;;;;;;;16.50;54.30;;;12.58;100.00;95398.41;4995126;28;20275;-46
2023/07/23 03:30:40;;;;;;;;;;;16.60;54.40;;;12.57;100.00;95399.47;4995031;28;19918;-46
2023/07/23 03:33:06;;;;;;;;;;;16.50;54.40;;;12.57;100.00;95402.16;4993845;28;19916;-44
2023/07/23 03:35:32;;;;;;;;;;;16.60;54.50;;;12.54;100.00;95402.72;4994897;28;19913;-47
2023/07/23 03:37:58;;;;;;;;;;;16.50;54.50;;;12.56;100.00;95399.75;5007409;28;19960;-45
2023/07/23 03:40:24;;;;;;;;;;;16.50;54.50;;;12.61;100.00;95399.72;4994736;28;19909;-48
2023/07/23 03:42:50;;;;;;;;;;;16.60;54.60;;;12.68;100.00;95400.97;5019274;28;19918;-44
2023/07/23 03:45:15;;;;;;;;;;;16.60;54.70;;;12.73;100.00;95402.81;4990788;28;19922;-44
2023/07/23 03:47:42;;;;;;;;;;;16.60;54.80;;;12.77;100.00;95398.50;4994737;28;19910;-47
2023/07/23 03:50:08;;;;;;;;;;;16.60;54.80;;;12.76;100.00;95398.78;4993931;28;19968;-46
2023/07/23 03:52:34;;;;;;;;;;;16.60;54.80;;;12.74;100.00;95396.38;4994377;28;19913;-44
2023/07/23 03:55:00;;;;;;;;;;;16.70;54.80;;;12.74;100.00;95405.19;4994443;28;19918;-48
2023/07/23 03:57:25;;;;;;;;;;;16.70;54.90;;;12.71;100.00;95403.06;5003602;23;20900;-48
2023/07/23 03:59:51;;;;;;;;;;;16.70;54.90;;;12.72;100.00;95403.88;4990870;28;19924;-48
2023/07/23 04:02:17;;;;;;;;;;;16.70;54.90;;;12.68;100.00;95400.19;4984038;28;19909;-48
2023/07/23 04:04:43;;;;;;;;;;;16.70;54.90;;;12.70;100.00;95403.38;5001502;28;20375;-47
2023/07/23 04:07:09;;;;;;;;;;;16.70;54.90;;;12.64;100.00;95399.94;4982764;28;20016;-49
2023/07/23 04:09:35;;;;;;;;;;;16.70;54.90;;;12.65;100.00;95406.88;4993500;28;20392;-49
2023/07/23 04:12:01;;;;;;;;;;;16.70;55.00;;;12.66;100.00;95405.81;4994106;28;19916;-49
2023/07/23 04:14:27;;;;;;;;;;;16.70;55.00;;;12.59;100.00;95399.19;5007975;28;20006;-53
2023/07/23 04:16:55;;;;;;;;;;;16.70;55.00;;;12.58;100.00;95406.41;5004544;28;19916;-48
2023/07/23 04:19:21;;;;;;;;;;;16.70;55.00;;;12.55;100.00;95411.53;5004132;28;19909;-51
2023/07/23 04:21:47;;;;;;;;;;;16.70;55.10;;;12.57;100.00;95414.72;4993609;28;19909;-49
2023/07/23 04:24:12;;;;;;;;;;;16.70;55.10;;;12.57;100.00;95415.50;4993703;28;20411;-49
2023/07/23 04:26:39;;;;;;;;;;;16.70;55.10;;;12.58;100.00;95411.75;4993144;28;19919;-48
2023/07/23 04:29:04;;;;;;;;;;;16.70;55.20;;;12.57;100.00;95412.84;4993438;28;19913;-50
2023/07/23 04:31:31;;;;;;;;;;;16.70;55.20;;;12.59;100.00;95412.56;4993053;28;19916;-51
2023/07/23 04:33:59;;;;;;;;;;;16.80;55.30;;;12.66;100.00;95419.19;4997355;28;19910;-48
2023/07/23 04:36:24;;;;;;;;;;;16.70;55.30;;;12.68;100.00;95414.34;5014714;28;19913;-48
2023/07/23 04:38:50;;;;;;;;;;;16.80;55.30;;;12.72;100.00;95419.91;4998959;28;19909;-50
2023/07/23 04:41:16;;;;;;;;;;;16.80;55.30;;;12.70;100.00;95420.19;5008695;28;19909;-49
2023/07/23 04:43:42;;;;;;;;;;;16.80;55.30;;;12.82;100.00;95416.38;4992633;28;19909;-48
2023/07/23 04:46:11;;;;;;;;;;;16.90;55.40;;;13.06;100.00;95422.50;4992860;28;26944;-48
2023/07/23 04:48:37;;;;;;;;;;;17.00;55.50;;;13.33;100.00;95421.19;4993279;28;19992;-48
2023/07/23 04:51:06;;;;;;;;;;;17.20;55.60;;;13.56;100.00;95425.72;4992251;28;20004;-50
2023/07/23 04:53:32;;;;;;;;;;;17.30;55.50;;;13.80;100.00;95419.53;4993408;28;20280;-48
2023/07/23 04:56:02;;;;;;;;;;;17.50;55.50;;;14.01;100.00;95420.84;4992435;28;19914;-48
2023/07/23 04:58:29;;;;;;;;;;;17.70;55.40;;;14.27;100.00;95421.25;4992353;28;19968;-48
2023/07/23 05:00:58;;;;;;;;;;;17.90;55.30;;;14.42;100.00;95420.22;4993424;28;19935;-52
2023/07/23 05:03:24;;;;;;;;;;;18.10;55.20;;;14.68;99.79;95422.53;4991881;28;19920;-48
2023/07/23 05:05:52;;;;;;;;;;;18.40;55.20;;;14.88;97.69;95432.88;4992038;28;19910;-48
2023/07/23 05:08:19;;;;;;;;;;;18.60;55.10;;;15.14;96.99;95429.75;4991643;28;20392;-53
2023/07/23 05:10:45;;;;;;;;;;;18.80;54.90;;;15.42;96.09;95426.00;5010945;28;19986;-48
2023/07/23 05:13:13;;;;;;;;;;;19.10;54.80;;;15.63;93.84;95426.34;5001403;28;19933;-51
2023/07/23 05:15:39;;;;;;;;;;;19.40;54.80;;;15.86;92.50;95432.63;4992064;28;20016;-48
2023/07/23 05:18:05;;;;;;;;;;;19.60;54.60;;;16.15;92.12;95434.16;4991436;28;19988;-47
2023/07/23 05:20:31;;;;;;;;;;;19.90;54.40;;;16.41;90.83;95435.16;4991913;28;19965;-49
2023/07/23 05:22:57;;;;;;;;;;;20.20;54.30;;;16.64;88.41;95437.88;4992890;28;19991;-52
2023/07/23 05:25:22;;;;;;;;;;;20.50;54.20;;;16.84;85.37;95433.91;4995274;28;20379;-52
2023/07/23 05:27:50;;;;;;;;;;;20.80;53.90;;;17.13;84.69;95446.06;5000898;28;19931;-50
2023/07/23 05:30:17;;;;;;;;;;;21.20;53.70;;;17.45;81.62;95445.72;4992552;28;19914;-51
2023/07/23 05:32:43;;;;;;;;;;;21.50;53.40;;;17.78;79.57;95451.56;4991513;28;19913;-52
2023/07/23 05:35:10;;;;;;;;;;;21.80;53.20;;;18.12;78.61;95454.66;4992737;28;19913;-49
2023/07/23 05:37:36;;;;;;;;;;;22.20;52.90;;;18.39;75.70;95454.34;4999968;28;20652;-49
2023/07/23 05:40:03;;;;;;;;;;;22.50;52.50;;;18.64;72.88;95450.06;4991865;28;19914;-50
2023/07/23 05:42:29;;;;;;;;;;;22.90;52.20;;;18.89;71.73;95453.84;4992361;28;19913;-49
2023/07/23 05:44:55;;;;;;;;;;;23.20;51.80;;;19.14;72.57;95454.91;4994339;28;19916;-49
2023/07/23 05:47:21;;;;;;;;;;;23.60;51.50;;;19.46;70.95;95462.75;4992407;28;20297;-54
2023/07/23 05:49:46;;;;;;;;;;;24.00;51.70;;;19.79;68.24;95449.47;4991285;28;19913;-54
2023/07/23 05:52:12;;;;;;;;;;;24.40;50.70;;;20.14;67.25;95450.03;4992370;28;19984;-49
2023/07/23 05:54:38;;;;;;;;;;;24.80;50.30;;;20.49;65.19;95447.06;5005480;28;19916;-48
2023/07/23 05:57:04;;;;;;;;;;;25.30;49.90;;;20.88;64.51;95450.44;4991366;28;20004;-47
2023/07/23 05:59:30;;;;;;;;;;;25.80;49.50;;;21.27;63.17;95451.75;4991404;28;19922;-53
2023/07/23 06:01:56;;;;;;;;;;;26.30;49.20;;;21.60;60.92;95453.66;4993461;28;19915;-51
2023/07/23 06:04:21;;;;;;;;;;;26.80;48.70;;;21.77;59.36;95449.91;4992210;28;20338;-47
2023/07/23 06:06:47;;;;;;;;;;;27.10;48.30;;;21.92;58.72;95450.03;5007163;28;19948;-52
2023/07/23 06:09:13;;;;;;;;;;;27.30;47.80;;;21.99;58.35;95454.88;4990683;28;19915;-52
2023/07/23 06:11:39;;;;;;;;;;;27.50;47.40;;;22.08;57.86;95460.19;4992270;28;19995;-52
2023/07/23 06:14:06;;;;;;;;;;;27.60;47.00;;;22.06;58.64;95448.88;4990890;28;19913;-54
2023/07/23 06:16:33;;;;;;;;;;;27.60;46.70;;;22.09;60.37;95456.31;4992052;28;19941;-48
2023/07/23 06:18:59;;;;;;;;;;;27.70;46.40;;;22.25;57.64;95457.25;5006541;28;20366;-47
2023/07/23 06:21:25;;;;;;;;;;;27.90;46.20;;;22.48;56.69;95459.47;4991022;28;19909;-46
2023/07/23 06:23:52;;;;;;;;;;;28.10;45.80;;;22.65;56.42;95453.75;4989264;28;19917;-49
2023/07/23 06:26:18;;;;;;;;;;;28.30;45.50;;;23.00;54.80;95461.31;4988668;28;19944;-49
2023/07/23 06:28:44;;;;;;;;;;;28.70;45.20;;;23.30;55.09;95462.53;5001249;28;20359;-48
2023/07/23 06:31:09;;;;;;;;;;;29.10;45.60;;;23.36;52.76;95459.56;5001305;28;19994;-48
2023/07/23 06:33:36;;;;;;;;;;;29.50;44.70;;;23.52;52.41;95468.50;4991632;28;19917;-50
2023/07/23 06:36:02;;;;;;;;;;;29.60;45.00;;;23.60;51.49;95459.41;4990959;28;19995;-50
2023/07/23 06:38:28;;;;;;;;;;;29.70;44.00;;;23.72;49.91;95463.97;4987041;28;20380;-53
2023/07/23 06:40:56;;;;;;;;;;;29.80;43.70;;;23.65;49.31;95466.50;4989434;28;19995;-52
2023/07/23 06:43:23;;;;;;;;;;;29.80;43.40;;;23.69;49.68;95468.19;4994299;28;19909;-54
2023/07/23 06:45:51;;;;;;;;;;;29.80;43.00;;;23.70;50.12;95471.72;4988604;28;19914;-54
2023/07/23 06:48:20;;;;;;;;;;;29.80;42.90;;;23.82;50.18;95481.69;4983885;28;20292;-48
2023/07/23 06:50:47;;;;;;;;;;;29.70;42.70;;;23.75;49.34;95479.56;4995239;28;19914;-50
2023/07/23 06:53:13;;;;;;;;;;;29.60;42.60;;;23.65;50.20;95482.81;4996651;28;19917;-48
2023/07/23 06:56:05;;;;;;;;;;;29.50;42.40;;;23.73;51.09;95477.22;5005923;28;19917;-47
2023/07/23 06:58:35;;;;;;;;;;;29.30;42.30;;;23.49;49.54;95488.22;4995808;28;19921;-49
2023/07/23 07:01:01;;;;;;;;;;;29.20;42.20;;;23.50;50.68;95484.38;4996029;28;19913;-47
2023/07/23 07:03:27;;;;;;;;;;;29.10;42.10;;;23.45;50.46;95479.22;4995504;28;19910;-47
2023/07/23 07:05:53;;;;;;;;;;;29.10;42.10;;;23.46;50.95;95481.56;5000567;28;20367;-51
2023/07/23 07:08:19;;;;;;;;;;;29.00;41.90;;;23.61;50.70;95485.44;5003466;28;19909;-47
2023/07/23 07:10:46;;;;;;;;;;;29.10;42.40;;;23.91;48.30;95485.00;4996064;28;19920;-47
2023/07/23 07:13:13;;;;;;;;;;;29.30;41.80;;;23.96;48.32;95488.25;4995766;28;19915;-48
2023/07/23 07:15:41;;;;;;;;;;;29.50;41.60;;;23.85;47.46;95487.22;4994875;28;19967;-49
2023/07/23 07:18:07;;;;;;;;;;;29.70;41.30;;;23.98;44.54;95487.91;5007226;28;19909;-47
2023/07/23 07:20:33;;;;;;;;;;;29.90;41.00;;;24.34;46.63;95494.94;4996039;28;19920;-47
2023/07/23 07:22:58;;;;;;;;;;;30.20;40.80;;;24.57;45.72;95481.50;4995474;28;20369;-48
2023/07/23 07:25:24;;;;;;;;;;;30.50;40.60;;;24.80;44.26;95480.78;4994149;28;19940;-47
2023/07/23 07:27:51;;;;;;;;;;;30.60;40.20;;;24.79;41.37;95480.00;4987846;28;19909;-48
2023/07/23 07:30:16;;;;;;;;;;;30.80;39.90;;;25.14;43.03;95490.84;5014602;28;20367;-54
2023/07/23 07:32:42;;;;;;;;;;;31.00;39.40;;;25.32;40.67;95479.47;5003045;28;19916;-53
2023/07/23 07:35:08;;;;;;;;;;;31.20;39.20;;;25.67;40.81;95482.06;5001287;28;20432;-54
2023/07/23 07:37:34;;;;;;;;;;;31.50;39.00;;;25.92;39.67;95485.22;5012091;28;19944;-52
2023/07/23 07:40:00;;;;;;;;;;;31.70;38.70;;;26.05;39.57;95483.84;4995520;28;19963;-55
2023/07/23 07:42:26;;;;;;;;;;;32.00;38.40;;;26.32;41.10;95481.13;5007911;28;19915;-55
2023/07/23 07:44:52;;;;;;;;;;;32.30;38.20;;;26.49;39.21;95480.63;5001293;28;19917;-53
2023/07/23 07:47:18;;;;;;;;;;;32.50;37.80;;;26.59;39.08;95472.94;4995050;28;19913;-54
2023/07/23 07:49:43;;;;;;;;;;;32.70;37.40;;;26.98;38.77;95482.41;4993927;28;20371;-55
2023/07/23 07:52:11;;;;;;;;;;;32.90;37.10;;;26.82;38.07;95478.31;4995349;28;20380;-53
2023/07/23 07:54:36;;;;;;;;;;;33.00;36.50;;;26.98;37.80;95478.88;5014066;28;19909;-53
2023/07/23 07:57:03;;;;;;;;;;;33.10;36.10;;;27.29;37.67;95477.69;4999738;28;19917;-47
2023/07/23 07:59:30;;;;;;;;;;;33.30;35.90;;;27.37;37.92;95486.78;4993045;28;20346;-50
2023/07/23 08:01:56;;;;;;;;;;;33.40;35.60;;;27.17;37.15;95478.75;4997774;28;19910;-54
2023/07/23 08:04:23;;;;;;;;;;;33.70;35.00;;;27.36;36.49;95483.25;4999557;28;19913;-51
2023/07/23 08:06:51;;;;;;;;;;;33.90;34.70;;;27.59;36.39;95483.06;5003867;28;19999;-50
2023/07/23 08:09:20;;;;;;;;;;;34.20;34.50;;;28.03;36.44;95476.84;5005538;28;20263;-49
2023/07/23 08:11:47;;;;;;;;;;;34.60;34.40;;;28.21;35.85;95473.44;4997600;28;20288;-48
2023/07/23 08:14:14;;;;;;;;;;;34.90;34.00;;;28.52;37.11;95472.88;5020300;28;19917;-52
2023/07/23 08:16:40;;;;;;;;;;;35.10;33.80;;;28.71;36.04;95474.53;4995988;28;19913;-52
2023/07/23 08:19:08;;;;;;;;;;;35.20;33.60;;;28.57;34.36;95477.19;5005972;28;19999;-50
2023/07/23 08:21:34;;;;;;;;;;;35.20;33.30;;;28.10;35.48;95476.09;4998269;28;19910;-48
2023/07/23 08:24:01;;;;;;;;;;;35.10;32.90;;;28.16;35.04;95474.56;5007101;28;20367;-47
2023/07/23 08:26:29;;;;;;;;;;;34.90;32.80;;;28.02;35.09;95466.28;4996673;28;19913;-51
2023/07/23 08:29:02;;;;;;;;;;;34.80;32.70;;;28.28;34.41;95463.31;5011933;28;20379;-47
2023/07/23 08:31:29;;;;;;;;;;;34.70;32.70;;;28.46;34.21;95457.19;5011380;28;19924;-52
2023/07/23 08:33:55;;;;;;;;;;;34.80;32.40;;;28.31;34.86;95459.81;4995444;28;19917;-50
2023/07/23 08:36:21;;;;;;;;;;;35.00;31.80;;;28.51;35.41;95465.03;5001431;28;19952;-48
2023/07/23 08:38:48;;;;;;;;;;;35.20;31.50;;;28.92;34.00;95462.09;5002499;28;20012;-52
2023/07/23 08:41:35;;;;;;;;;;;35.50;31.50;;;28.62;34.34;95448.66;5002577;28;20380;-49
2023/07/23 08:44:15;;;;;;;;;;;35.90;30.70;;;28.89;33.79;95468.34;5010713;28;20100;-48
2023/07/23 08:46:47;;;;;;;;;;;36.20;30.20;;;29.35;33.13;95471.25;5009964;28;19999;-50
2023/07/23 08:49:17;;;;;;;;;;;36.50;30.00;;;29.33;33.17;95464.59;5013574;28;19909;-48
2023/07/23 08:51:48;;;;;;;;;;;36.60;29.90;;;29.40;32.86;95470.09;5001274;28;19916;-50
2023/07/23 08:54:16;;;;;;;;;;;36.60;29.90;;;29.23;33.25;95477.88;5013900;28;19909;-50
2023/07/23 08:56:44;;;;;;;;;;;36.60;29.80;;;29.36;32.91;95463.81;5010549;28;19909;-51
2023/07/23 08:59:10;;;;;;;;;;;36.60;29.80;;;29.22;32.80;95472.81;5002153;28;19940;-48
2023/07/23 09:01:42;;;;;;;;;;;36.30;29.80;;;29.13;33.48;95478.66;5010988;28;20397;-54
2023/07/23 09:04:13;;;;;;;;;;;36.10;29.90;;;29.27;33.15;95469.66;5000135;28;19916;-48
2023/07/23 09:06:43;;;;;;;;;;;36.10;29.80;;;29.11;33.29;95471.97;5013970;28;20370;-50
2023/07/23 09:09:13;;;;;;;;;;;36.10;29.60;;;29.37;33.85;95477.16;5001170;28;20283;-51
2023/07/23 09:11:39;;;;;;;;;;;36.20;29.60;;;29.39;32.64;95463.03;5013615;28;20295;-48
2023/07/23 09:14:11;;;;;;;;;;;36.40;29.50;;;29.35;32.83;95463.03;5010151;28;19909;-47
2023/07/23 09:16:44;;;;;;;;;;;36.60;29.30;;;29.49;32.43;95471.31;5028700;28;20070;-47
2023/07/23 09:19:13;;;;;;;;;;;36.90;29.30;;;29.80;32.43;95463.50;5001347;28;20292;-48
2023/07/23 09:21:44;;;;;;;;;;;37.10;29.20;;;30.13;32.35;95461.53;4998072;28;19909;-51
2023/07/23 09:24:15;;;;;;;;;;;37.40;29.20;;;30.34;31.94;95460.75;5009335;28;19909;-48
2023/07/23 09:26:43;;;;;;;;;;;37.70;29.10;;;30.33;31.64;95462.69;5000068;28;19995;-48
2023/07/23 09:29:11;;;;;;;;;;;37.80;29.00;;;30.58;31.79;95453.63;4993607;28;19909;-48
2023/07/23 09:31:43;;;;;;;;;;;38.00;28.90;;;30.48;32.23;95463.47;4992640;28;19913;-48
2023/07/23 09:34:09;;;;;;;;;;;38.20;28.70;;;30.08;31.40;95459.19;4995079;28;20387;-48
2023/07/23 09:36:35;;;;;;;;;;;38.20;28.30;;;29.81;31.60;95456.84;5002236;28;19909;-48
2023/07/23 09:39:06;;;;;;;;;;;38.00;28.00;;;30.14;31.86;95463.09;4990912;28;19932;-52
2023/07/23 09:41:36;;;;;;;;;;;38.00;28.00;;;29.83;31.05;95459.97;4992278;28;20372;-51
2023/07/23 09:44:11;;;;;;;;;;;38.10;27.70;;;30.15;31.29;95459.19;4992824;28;20383;-53
2023/07/23 09:46:40;;;;;;;;;;;38.00;27.60;;;30.29;31.48;95459.19;5006257;28;19916;-49
2023/07/23 09:49:06;;;;;;;;;;;38.10;27.70;;;30.24;30.82;95461.53;5012866;28;20429;-53
2023/07/23 09:51:32;;;;;;;;;;;38.10;27.60;;;29.72;31.07;95449.00;5025410;28;19917;-52
2023/07/23 09:54:03;;;;;;;;;;;38.00;27.10;;;29.79;32.27;95453.69;5000398;28;19939;-48
2023/07/23 09:56:32;;;;;;;;;;;37.80;26.80;;;30.28;31.55;95454.88;5003529;28;19909;-49
2023/07/23 09:58:59;;;;;;;;;;;37.80;26.90;;;30.86;31.01;95467.28;4995282;23;19922;-47
2023/07/23 10:01:26;;;;;;;;;;;37.90;26.90;;;31.03;29.92;95453.88;4932567;29;20389;-46
2023/07/23 10:03:54;;;;;;;;;;;38.00;26.90;;;31.36;31.23;95457.25;4924411;29;19952;-47
2023/07/23 10:06:21;;;;;;;;;;;38.20;26.90;;;31.60;29.98;95456.31;4935285;29;20033;-47
2023/07/23 10:08:48;;;;;;;;;;;38.30;26.80;;;31.53;29.53;95457.16;4934240;29;19910;-46
2023/07/23 10:11:17;;;;;;;;;;;38.30;26.70;;;31.44;28.92;95445.81;4934959;29;20289;-47
2023/07/23 10:13:44;;;;;;;;;;;38.20;26.80;;;31.50;29.96;95455.22;4933382;29;19918;-48
2023/07/23 10:16:23;;;;;;;;;;;38.10;26.70;;;31.33;29.87;95451.38;4934913;29;19918;-47
2023/07/23 10:18:51;;;;;;;;;;;37.90;26.80;;;31.08;30.02;95448.72;4933872;29;19910;-49
2023/07/23 10:21:20;;;;;;;;;;;37.70;26.70;;;30.35;31.49;95443.09;4933349;29;20280;-49
2023/07/23 10:23:58;;;;;;;;;;;37.50;26.40;;;30.10;31.75;95445.84;4934964;29;19914;-47
2023/07/23 10:26:37;;;;;;;;;;;37.40;26.20;;;30.68;30.49;95439.06;4935379;29;20160;-46
2023/07/23 10:29:11;;;;;;;;;;;37.40;26.40;;;30.95;31.06;95441.34;4934665;29;20368;-47
2023/07/23 10:31:38;;;;;;;;;;;37.70;26.30;;;31.32;30.32;95435.25;4934008;29;20012;-48
2023/07/23 10:34:26;;;;;;;;;;;37.80;26.20;;;31.19;30.59;95434.16;4932050;29;20293;-51
2023/07/23 10:37:12;;;;;;;;;;;37.90;26.00;;;30.82;30.62;95428.03;4933757;28;20608;-49
2023/07/23 10:39:45;;;;;;;;;;;38.10;25.70;;;31.15;30.20;95427.88;4931999;29;19968;-47
2023/07/23 10:42:41;;;;;;;;;;;38.10;25.60;;;30.17;30.57;95437.59;4934344;29;19911;-46
2023/07/23 10:45:22;;;;;;;;;;;38.10;25.00;;;30.23;30.99;95421.53;4933118;29;19911;-49
2023/07/23 10:47:57;;;;;;;;;;;38.00;24.90;;;30.48;30.44;95429.72;4934017;29;19992;-48
2023/07/23 10:50:27;;;;;;;;;;;38.00;24.90;;;30.56;30.53;95404.56;4933155;29;19925;-50
2023/07/23 10:53:03;;;;;;;;;;;38.00;24.80;;;30.85;30.35;95420.97;4933383;29;19910;-48
2023/07/23 10:55:50;;;;;;;;;;;38.10;24.90;;;30.67;30.09;95408.03;4932971;29;19942;-48
2023/07/23 10:58:21;;;;;;;;;;;38.20;24.80;;;30.73;29.99;95411.16;4933766;29;19918;-51
2023/07/23 11:00:58;;;;;;;;;;;38.30;24.90;;;30.92;30.55;95414.66;4934021;29;20005;-50
2023/07/23 11:03:26;;;;;;;;;;;38.40;24.80;;;31.26;30.51;95421.13;4929274;29;19915;-47
2023/07/23 11:05:53;;;;;;;;;;;38.50;24.90;;;30.80;30.03;95397.41;4933600;29;19981;-51
2023/07/23 11:08:23;;;;;;;;;;;38.60;24.80;;;30.57;31.42;95389.63;4935651;29;19910;-47
2023/07/23 11:11:02;;;;;;;;;;;38.30;24.70;;;30.18;31.52;95379.53;4946769;29;19936;-46
2023/07/23 11:13:35;;;;;;;;;;;37.80;24.70;;;30.27;31.73;95379.13;4922706;29;19911;-49
2023/07/23 11:16:02;;;;;;;;;;;37.50;24.90;;;30.01;31.41;95380.34;4933615;29;19910;-52